sensor_id;sensor_type;location;lat;lon;timestamp;pressure;altitude;pressure_sealevel;temperature;humidity
81352;BME280;70809;52.184;13.422;2023-10-08T00:00:24;101472.50;;;12.23;92.03
81352;BME280;70809;52.184;13.422;2023-10-08T00:01:26;101478.69;;;12.25;92.44
81352;BME280;70809;52.184;13.422;2023-10-08T00:02:27;101481.19;;;12.16;92.18
81352;BME280;70809;52.184;13.422;2023-10-08T00:03:29;101482.97;;;12.17;92.46
81352;BME280;70809;52.184;13.422;2023-10-08T00:04:31;101476.00;;;12.22;92.58
81352;BME280;70809;52.184;13.422;2023-10-08T00:05:35;101481.13;;;12.13;92.19
81352;BME280;70809;52.184;13.422;2023-10-08T00:06:37;101482.78;;;12.08;92.21
81352;BME280;70809;52.184;13.422;2023-10-08T00:07:38;101493.25;;;12.02;92.78
81352;BME280;70809;52.184;13.422;2023-10-08T00:08:40;101490.56;;;11.99;92.80
81352;BME280;70809;52.184;13.422;2023-10-08T00:09:42;101493.13;;;11.94;93.27
81352;BME280;70809;52.184;13.422;2023-10-08T00:10:44;101497.44;;;11.89;94.21
81352;BME280;70809;52.184;13.422;2023-10-08T00:11:47;101486.94;;;11.93;93.79
81352;BME280;70809;52.184;13.422;2023-10-08T00:12:49;101489.50;;;11.90;93.39
81352;BME280;70809;52.184;13.422;2023-10-08T00:13:50;101492.66;;;11.74;93.50
81352;BME280;70809;52.184;13.422;2023-10-08T00:14:52;101490.84;;;11.70;93.30
81352;BME280;70809;52.184;13.422;2023-10-08T00:15:54;101504.22;;;11.78;93.69
81352;BME280;70809;52.184;13.422;2023-10-08T00:16:55;101497.06;;;11.74;93.92
81352;BME280;70809;52.184;13.422;2023-10-08T00:17:57;101496.41;;;11.82;93.22
81352;BME280;70809;52.184;13.422;2023-10-08T00:18:59;101501.78;;;11.87;93.20
81352;BME280;70809;52.184;13.422;2023-10-08T00:20:01;101497.34;;;11.86;92.92
81352;BME280;70809;52.184;13.422;2023-10-08T00:21:03;101507.69;;;11.75;93.40
81352;BME280;70809;52.184;13.422;2023-10-08T00:22:05;101502.31;;;11.70;93.71
81352;BME280;70809;52.184;13.422;2023-10-08T00:23:07;101509.44;;;11.75;94.09
81352;BME280;70809;52.184;13.422;2023-10-08T00:24:08;101502.47;;;11.80;93.82
81352;BME280;70809;52.184;13.422;2023-10-08T00:25:10;101511.31;;;11.80;93.24
81352;BME280;70809;52.184;13.422;2023-10-08T00:26:11;101508.53;;;11.74;93.15
81352;BME280;70809;52.184;13.422;2023-10-08T00:27:16;101505.03;;;11.75;94.13
81352;BME280;70809;52.184;13.422;2023-10-08T00:28:17;101489.19;;;11.77;93.28
81352;BME280;70809;52.184;13.422;2023-10-08T00:29:19;101491.78;;;11.74;92.91
81352;BME280;70809;52.184;13.422;2023-10-08T00:30:21;101499.69;;;11.72;93.64
81352;BME280;70809;52.184;13.422;2023-10-08T00:31:22;101511.28;;;11.77;93.90
81352;BME280;70809;52.184;13.422;2023-10-08T00:32:25;101507.75;;;11.78;93.92
81352;BME280;70809;52.184;13.422;2023-10-08T00:33:27;101501.56;;;11.78;93.25
81352;BME280;70809;52.184;13.422;2023-10-08T00:34:29;101508.78;;;11.83;93.23
81352;BME280;70809;52.184;13.422;2023-10-08T00:35:31;101509.44;;;11.75;93.09
81352;BME280;70809;52.184;13.422;2023-10-08T00:36:32;101516.56;;;11.77;93.30
81352;BME280;70809;52.184;13.422;2023-10-08T00:37:34;101515.63;;;11.75;93.08
81352;BME280;70809;52.184;13.422;2023-10-08T00:38:36;101519.97;;;11.72;93.15
81352;BME280;70809;52.184;13.422;2023-10-08T00:39:37;101520.91;;;11.75;93.10
81352;BME280;70809;52.184;13.422;2023-10-08T00:40:40;101514.84;;;11.81;93.41
81352;BME280;70809;52.184;13.422;2023-10-08T00:41:42;101521.84;;;11.76;93.38
81352;BME280;70809;52.184;13.422;2023-10-08T00:42:46;101519.19;;;11.76;93.38
81352;BME280;70809;52.184;13.422;2023-10-08T00:43:48;101510.28;;;11.72;92.95
81352;BME280;70809;52.184;13.422;2023-10-08T00:44:50;101517.13;;;11.62;93.42
81352;BME280;70809;52.184;13.422;2023-10-08T00:45:52;101516.44;;;11.71;94.20
81352;BME280;70809;52.184;13.422;2023-10-08T00:46:53;101512.94;;;11.74;93.92
81352;BME280;70809;52.184;13.422;2023-10-08T00:47:55;101521.84;;;11.76;93.51
81352;BME280;70809;52.184;13.422;2023-10-08T00:48:59;101515.47;;;11.67;92.39
81352;BME280;70809;52.184;13.422;2023-10-08T00:50:02;101517.31;;;11.72;92.79
81352;BME280;70809;52.184;13.422;2023-10-08T00:51:04;101517.56;;;11.43;92.13
81352;BME280;70809;52.184;13.422;2023-10-08T00:52:09;101505.59;;;11.21;93.14
81352;BME280;70809;52.184;13.422;2023-10-08T00:53:11;101511.38;;;11.05;94.41
81352;BME280;70809;52.184;13.422;2023-10-08T00:54:14;101515.34;;;11.24;94.43
81352;BME280;70809;52.184;13.422;2023-10-08T00:55:16;101510.97;;;11.24;94.10
81352;BME280;70809;52.184;13.422;2023-10-08T00:56:18;101513.22;;;11.07;94.25
81352;BME280;70809;52.184;13.422;2023-10-08T00:57:22;101515.75;;;11.03;94.69
81352;BME280;70809;52.184;13.422;2023-10-08T00:58:25;101509.56;;;11.02;95.27
81352;BME280;70809;52.184;13.422;2023-10-08T00:59:27;101508.34;;;11.26;95.01
81352;BME280;70809;52.184;13.422;2023-10-08T01:00:29;101501.91;;;11.13;95.04
81352;BME280;70809;52.184;13.422;2023-10-08T01:01:31;101505.38;;;11.12;95.05
81352;BME280;70809;52.184;13.422;2023-10-08T01:02:33;101517.34;;;10.96;95.13
81352;BME280;70809;52.184;13.422;2023-10-08T01:03:34;101515.38;;;10.89;95.88
81352;BME280;70809;52.184;13.422;2023-10-08T01:04:36;101525.72;;;10.78;96.73
81352;BME280;70809;52.184;13.422;2023-10-08T01:05:38;101528.66;;;10.90;97.26
81352;BME280;70809;52.184;13.422;2023-10-08T01:06:40;101521.38;;;11.18;96.31
81352;BME280;70809;52.184;13.422;2023-10-08T01:07:41;101522.63;;;11.32;95.81
81352;BME280;70809;52.184;13.422;2023-10-08T01:08:45;101526.84;;;11.24;95.42
81352;BME280;70809;52.184;13.422;2023-10-08T01:09:48;101530.31;;;11.23;94.63
81352;BME280;70809;52.184;13.422;2023-10-08T01:10:50;101531.59;;;11.40;95.03
81352;BME280;70809;52.184;13.422;2023-10-08T01:12:07;101531.09;;;11.57;94.49
81352;BME280;70809;52.184;13.422;2023-10-08T01:13:08;101540.13;;;11.65;94.17
81352;BME280;70809;52.184;13.422;2023-10-08T01:14:11;101537.63;;;11.73;93.56
81352;BME280;70809;52.184;13.422;2023-10-08T01:15:13;101541.69;;;11.57;93.27
81352;BME280;70809;52.184;13.422;2023-10-08T01:16:15;101543.47;;;11.58;93.17
81352;BME280;70809;52.184;13.422;2023-10-08T01:17:17;101535.38;;;11.50;93.20
81352;BME280;70809;52.184;13.422;2023-10-08T01:18:18;101544.56;;;11.66;93.15
81352;BME280;70809;52.184;13.422;2023-10-08T01:19:20;101540.69;;;11.52;93.12
81352;BME280;70809;52.184;13.422;2023-10-08T01:20:22;101543.47;;;11.58;93.73
81352;BME280;70809;52.184;13.422;2023-10-08T01:21:23;101546.03;;;11.53;92.79
81352;BME280;70809;52.184;13.422;2023-10-08T01:22:26;101538.25;;;11.61;93.77
81352;BME280;70809;52.184;13.422;2023-10-08T01:23:28;101541.00;;;11.65;93.16
81352;BME280;70809;52.184;13.422;2023-10-08T01:24:30;101536.75;;;11.72;93.53
81352;BME280;70809;52.184;13.422;2023-10-08T01:25:31;101535.88;;;11.73;93.18
81352;BME280;70809;52.184;13.422;2023-10-08T01:26:33;101538.78;;;11.82;92.92
81352;BME280;70809;52.184;13.422;2023-10-08T01:27:35;101542.25;;;11.81;92.02
81352;BME280;70809;52.184;13.422;2023-10-08T01:28:36;101559.47;;;11.64;92.07
81352;BME280;70809;52.184;13.422;2023-10-08T01:29:38;101548.03;;;11.26;93.48
81352;BME280;70809;52.184;13.422;2023-10-08T01:30:41;101553.34;;;11.27;94.49
81352;BME280;70809;52.184;13.422;2023-10-08T01:31:43;101567.06;;;11.11;95.15
81352;BME280;70809;52.184;13.422;2023-10-08T01:32:45;101556.28;;;11.03;95.35
81352;BME280;70809;52.184;13.422;2023-10-08T01:33:47;101561.56;;;11.02;96.65
81352;BME280;70809;52.184;13.422;2023-10-08T01:34:49;101557.09;;;11.01;96.44
81352;BME280;70809;52.184;13.422;2023-10-08T01:35:51;101557.63;;;10.86;96.86
81352;BME280;70809;52.184;13.422;2023-10-08T01:36:53;101567.19;;;11.15;97.08
81352;BME280;70809;52.184;13.422;2023-10-08T01:37:56;101570.69;;;11.14;96.79
81352;BME280;70809;52.184;13.422;2023-10-08T01:38:57;101578.75;;;11.21;96.44
81352;BME280;70809;52.184;13.422;2023-10-08T01:39:59;101574.53;;;11.29;95.71
81352;BME280;70809;52.184;13.422;2023-10-08T01:41:01;101579.06;;;11.33;95.83
81352;BME280;70809;52.184;13.422;2023-10-08T01:42:03;101576.59;;;11.40;96.11
81352;BME280;70809;52.184;13.422;2023-10-08T01:43:05;101584.47;;;11.37;95.71
81352;BME280;70809;52.184;13.422;2023-10-08T01:44:06;101581.53;;;11.25;95.35
81352;BME280;70809;52.184;13.422;2023-10-08T01:45:09;101584.34;;;10.97;96.41
81352;BME280;70809;52.184;13.422;2023-10-08T01:46:10;101596.38;;;10.85;97.33
81352;BME280;70809;52.184;13.422;2023-10-08T01:47:12;101595.72;;;10.94;97.86
81352;BME280;70809;52.184;13.422;2023-10-08T01:48:14;101588.16;;;11.08;97.21
81352;BME280;70809;52.184;13.422;2023-10-08T01:49:16;101594.31;;;11.07;97.05
81352;BME280;70809;52.184;13.422;2023-10-08T01:50:18;101593.44;;;11.08;97.09
81352;BME280;70809;52.184;13.422;2023-10-08T01:51:20;101596.81;;;11.02;96.97
81352;BME280;70809;52.184;13.422;2023-10-08T01:52:21;101596.56;;;11.28;97.17
81352;BME280;70809;52.184;13.422;2023-10-08T01:53:24;101592.22;;;10.95;97.08
81352;BME280;70809;52.184;13.422;2023-10-08T01:54:26;101608.41;;;11.07;97.49
81352;BME280;70809;52.184;13.422;2023-10-08T01:55:28;101606.25;;;10.93;97.03
81352;BME280;70809;52.184;13.422;2023-10-08T01:56:30;101606.34;;;10.96;97.61
81352;BME280;70809;52.184;13.422;2023-10-08T01:57:32;101603.34;;;10.83;97.95
81352;BME280;70809;52.184;13.422;2023-10-08T01:58:33;101601.41;;;10.76;98.44
81352;BME280;70809;52.184;13.422;2023-10-08T01:59:35;101604.66;;;10.66;99.15
81352;BME280;70809;52.184;13.422;2023-10-08T02:00:37;101613.75;;;10.77;99.27
81352;BME280;70809;52.184;13.422;2023-10-08T02:01:38;101606.50;;;10.69;99.31
81352;BME280;70809;52.184;13.422;2023-10-08T02:02:40;101604.03;;;10.75;99.15
81352;BME280;70809;52.184;13.422;2023-10-08T02:03:42;101600.88;;;10.89;99.24
81352;BME280;70809;52.184;13.422;2023-10-08T02:04:44;101602.56;;;10.86;98.47
81352;BME280;70809;52.184;13.422;2023-10-08T02:05:46;101608.41;;;10.74;98.65
81352;BME280;70809;52.184;13.422;2023-10-08T02:06:48;101607.03;;;10.88;98.66
81352;BME280;70809;52.184;13.422;2023-10-08T02:07:50;101611.03;;;10.73;98.93
81352;BME280;70809;52.184;13.422;2023-10-08T02:08:53;101621.25;;;10.94;98.94
81352;BME280;70809;52.184;13.422;2023-10-08T02:09:54;101628.88;;;10.81;98.75
81352;BME280;70809;52.184;13.422;2023-10-08T02:10:56;101634.19;;;10.83;98.61
81352;BME280;70809;52.184;13.422;2023-10-08T02:11:58;101636.66;;;10.77;98.15
81352;BME280;70809;52.184;13.422;2023-10-08T02:13:00;101640.91;;;10.72;97.60
81352;BME280;70809;52.184;13.422;2023-10-08T02:14:03;101643.88;;;10.82;97.23
81352;BME280;70809;52.184;13.422;2023-10-08T02:15:05;101639.75;;;10.94;97.78
81352;BME280;70809;52.184;13.422;2023-10-08T02:16:07;101639.00;;;10.98;96.91
81352;BME280;70809;52.184;13.422;2023-10-08T02:17:09;101647.72;;;10.95;96.61
81352;BME280;70809;52.184;13.422;2023-10-08T02:18:11;101651.84;;;10.84;96.70
81352;BME280;70809;52.184;13.422;2023-10-08T02:19:13;101645.75;;;10.86;96.76
81352;BME280;70809;52.184;13.422;2023-10-08T02:20:15;101652.38;;;10.72;96.86
81352;BME280;70809;52.184;13.422;2023-10-08T02:21:17;101651.28;;;10.96;96.77
81352;BME280;70809;52.184;13.422;2023-10-08T02:22:19;101644.59;;;11.10;96.69
81352;BME280;70809;52.184;13.422;2023-10-08T02:23:20;101650.22;;;11.22;96.72
81352;BME280;70809;52.184;13.422;2023-10-08T02:24:24;101649.34;;;11.23;95.63
81352;BME280;70809;52.184;13.422;2023-10-08T02:25:26;101650.00;;;11.13;94.88
81352;BME280;70809;52.184;13.422;2023-10-08T02:26:28;101650.88;;;11.13;94.45
81352;BME280;70809;52.184;13.422;2023-10-08T02:27:30;101643.97;;;11.19;94.72
81352;BME280;70809;52.184;13.422;2023-10-08T02:28:32;101651.34;;;11.32;94.92
81352;BME280;70809;52.184;13.422;2023-10-08T02:29:34;101652.66;;;11.14;94.27
81352;BME280;70809;52.184;13.422;2023-10-08T02:30:35;101641.44;;;10.90;94.22
81352;BME280;70809;52.184;13.422;2023-10-08T02:31:37;101641.91;;;11.07;94.61
81352;BME280;70809;52.184;13.422;2023-10-08T02:32:39;101646.53;;;11.17;93.81
81352;BME280;70809;52.184;13.422;2023-10-08T02:33:41;101649.84;;;11.07;93.50
81352;BME280;70809;52.184;13.422;2023-10-08T02:34:43;101645.53;;;11.12;93.18
81352;BME280;70809;52.184;13.422;2023-10-08T02:35:46;101643.13;;;11.21;94.01
81352;BME280;70809;52.184;13.422;2023-10-08T02:36:48;101649.28;;;11.20;93.06
81352;BME280;70809;52.184;13.422;2023-10-08T02:37:49;101648.66;;;10.96;93.37
81352;BME280;70809;52.184;13.422;2023-10-08T02:38:51;101658.38;;;10.65;94.28
81352;BME280;70809;52.184;13.422;2023-10-08T02:39:54;101653.81;;;10.59;95.09
81352;BME280;70809;52.184;13.422;2023-10-08T02:40:56;101653.63;;;10.53;95.22
81352;BME280;70809;52.184;13.422;2023-10-08T02:41:57;101648.88;;;10.42;96.30
81352;BME280;70809;52.184;13.422;2023-10-08T02:42:59;101656.50;;;10.61;95.96
81352;BME280;70809;52.184;13.422;2023-10-08T02:44:00;101660.03;;;10.61;95.08
81352;BME280;70809;52.184;13.422;2023-10-08T02:45:03;101664.59;;;10.67;94.88
81352;BME280;70809;52.184;13.422;2023-10-08T02:46:04;101665.78;;;10.47;95.60
81352;BME280;70809;52.184;13.422;2023-10-08T02:47:07;101661.16;;;10.40;96.54
81352;BME280;70809;52.184;13.422;2023-10-08T02:48:09;101661.41;;;10.49;96.76
81352;BME280;70809;52.184;13.422;2023-10-08T02:49:11;101680.09;;;10.55;97.15
81352;BME280;70809;52.184;13.422;2023-10-08T02:50:13;101675.75;;;10.57;96.45
81352;BME280;70809;52.184;13.422;2023-10-08T02:51:15;101687.34;;;10.62;96.23
81352;BME280;70809;52.184;13.422;2023-10-08T02:52:17;101679.25;;;10.87;96.15
81352;BME280;70809;52.184;13.422;2023-10-08T02:53:19;101668.25;;;10.72;95.71
81352;BME280;70809;52.184;13.422;2023-10-08T02:54:22;101674.56;;;10.77;95.61
81352;BME280;70809;52.184;13.422;2023-10-08T02:55:25;101671.56;;;10.65;95.83
81352;BME280;70809;52.184;13.422;2023-10-08T02:56:27;101684.38;;;10.50;96.68
81352;BME280;70809;52.184;13.422;2023-10-08T02:57:28;101687.66;;;10.43;97.27
81352;BME280;70809;52.184;13.422;2023-10-08T02:58:30;101683.59;;;10.24;98.14
81352;BME280;70809;52.184;13.422;2023-10-08T02:59:32;101677.44;;;10.25;98.78
81352;BME280;70809;52.184;13.422;2023-10-08T03:00:34;101673.84;;;10.23;98.88
81352;BME280;70809;52.184;13.422;2023-10-08T03:01:36;101666.63;;;10.17;99.77
81352;BME280;70809;52.184;13.422;2023-10-08T03:02:37;101665.19;;;10.27;99.43
81352;BME280;70809;52.184;13.422;2023-10-08T03:03:40;101660.34;;;10.42;99.08
81352;BME280;70809;52.184;13.422;2023-10-08T03:04:43;101658.41;;;10.36;98.81
81352;BME280;70809;52.184;13.422;2023-10-08T03:05:47;101663.41;;;10.56;98.99
81352;BME280;70809;52.184;13.422;2023-10-08T03:06:49;101666.38;;;10.68;97.90
81352;BME280;70809;52.184;13.422;2023-10-08T03:07:52;101673.28;;;10.63;97.66
81352;BME280;70809;52.184;13.422;2023-10-08T03:08:53;101679.97;;;10.82;97.73
81352;BME280;70809;52.184;13.422;2023-10-08T03:09:55;101679.63;;;10.70;97.03
81352;BME280;70809;52.184;13.422;2023-10-08T03:10:58;101685.03;;;10.73;97.76
81352;BME280;70809;52.184;13.422;2023-10-08T03:12:00;101682.78;;;10.88;97.50
81352;BME280;70809;52.184;13.422;2023-10-08T03:13:02;101686.91;;;11.10;97.13
81352;BME280;70809;52.184;13.422;2023-10-08T03:14:04;101683.84;;;10.95;95.95
81352;BME280;70809;52.184;13.422;2023-10-08T03:15:07;101679.84;;;11.09;96.78
81352;BME280;70809;52.184;13.422;2023-10-08T03:16:12;101683.97;;;10.99;96.13
81352;BME280;70809;52.184;13.422;2023-10-08T03:17:13;101686.56;;;10.96;95.87
81352;BME280;70809;52.184;13.422;2023-10-08T03:18:15;101688.72;;;10.79;96.23
81352;BME280;70809;52.184;13.422;2023-10-08T03:19:17;101698.19;;;10.71;96.54
81352;BME280;70809;52.184;13.422;2023-10-08T03:20:20;101697.56;;;10.50;97.98
81352;BME280;70809;52.184;13.422;2023-10-08T03:21:22;101698.56;;;10.55;98.46
81352;BME280;70809;52.184;13.422;2023-10-08T03:22:26;101699.00;;;10.69;98.12
81352;BME280;70809;52.184;13.422;2023-10-08T03:23:27;101698.53;;;10.53;98.38
81352;BME280;70809;52.184;13.422;2023-10-08T03:24:29;101680.53;;;10.70;98.47
81352;BME280;70809;52.184;13.422;2023-10-08T03:25:31;101676.59;;;10.87;97.84
81352;BME280;70809;52.184;13.422;2023-10-08T03:26:34;101674.84;;;10.88;97.11
81352;BME280;70809;52.184;13.422;2023-10-08T03:27:36;101674.16;;;10.62;97.68
81352;BME280;70809;52.184;13.422;2023-10-08T03:28:38;101669.50;;;10.55;98.38
81352;BME280;70809;52.184;13.422;2023-10-08T03:29:40;101668.38;;;10.77;98.67
81352;BME280;70809;52.184;13.422;2023-10-08T03:30:43;101677.91;;;11.02;98.24
81352;BME280;70809;52.184;13.422;2023-10-08T03:31:45;101672.03;;;11.13;97.45
81352;BME280;70809;52.184;13.422;2023-10-08T03:32:47;101674.00;;;11.22;96.66
81352;BME280;70809;52.184;13.422;2023-10-08T03:33:48;101677.81;;;11.32;95.86
81352;BME280;70809;52.184;13.422;2023-10-08T03:34:50;101674.22;;;11.30;95.56
81352;BME280;70809;52.184;13.422;2023-10-08T03:35:52;101669.75;;;11.27;95.63
81352;BME280;70809;52.184;13.422;2023-10-08T03:36:54;101682.47;;;11.07;94.82
81352;BME280;70809;52.184;13.422;2023-10-08T03:37:55;101687.22;;;10.89;95.76
81352;BME280;70809;52.184;13.422;2023-10-08T03:38:57;101695.00;;;11.16;96.50
81352;BME280;70809;52.184;13.422;2023-10-08T03:39:59;101698.97;;;11.32;95.92
81352;BME280;70809;52.184;13.422;2023-10-08T03:41:01;101698.22;;;11.37;95.00
81352;BME280;70809;52.184;13.422;2023-10-08T03:42:04;101700.25;;;11.48;94.94
81352;BME280;70809;52.184;13.422;2023-10-08T03:43:05;101702.63;;;11.37;93.83
81352;BME280;70809;52.184;13.422;2023-10-08T03:44:07;101705.88;;;11.27;93.75
81352;BME280;70809;52.184;13.422;2023-10-08T03:45:09;101710.19;;;11.23;94.20
81352;BME280;70809;52.184;13.422;2023-10-08T03:46:11;101706.88;;;11.30;94.53
81352;BME280;70809;52.184;13.422;2023-10-08T03:47:13;101708.50;;;11.25;94.61
81352;BME280;70809;52.184;13.422;2023-10-08T03:48:14;101700.66;;;10.97;95.18
81352;BME280;70809;52.184;13.422;2023-10-08T03:49:16;101700.78;;;10.70;96.51
81352;BME280;70809;52.184;13.422;2023-10-08T03:50:18;101716.63;;;10.70;97.66
81352;BME280;70809;52.184;13.422;2023-10-08T03:51:20;101723.22;;;10.54;98.14
81352;BME280;70809;52.184;13.422;2023-10-08T03:52:21;101733.97;;;10.60;98.73
81352;BME280;70809;52.184;13.422;2023-10-08T03:53:23;101733.56;;;10.76;98.46
81352;BME280;70809;52.184;13.422;2023-10-08T03:54:24;101734.88;;;10.90;97.81
81352;BME280;70809;52.184;13.422;2023-10-08T03:55:26;101739.16;;;10.87;97.43
81352;BME280;70809;52.184;13.422;2023-10-08T03:56:28;101728.03;;;10.67;97.58
81352;BME280;70809;52.184;13.422;2023-10-08T03:57:31;101725.69;;;10.48;98.99
81352;BME280;70809;52.184;13.422;2023-10-08T03:58:33;101725.31;;;10.35;99.66
81352;BME280;70809;52.184;13.422;2023-10-08T03:59:34;101728.00;;;10.37;100.00
81352;BME280;70809;52.184;13.422;2023-10-08T04:00:36;101740.31;;;10.36;100.00
81352;BME280;70809;52.184;13.422;2023-10-08T04:01:38;101749.75;;;10.57;100.00
81352;BME280;70809;52.184;13.422;2023-10-08T04:02:42;101748.16;;;10.63;100.00
81352;BME280;70809;52.184;13.422;2023-10-08T04:03:43;101757.00;;;10.64;99.45
81352;BME280;70809;52.184;13.422;2023-10-08T04:04:45;101770.53;;;10.75;99.34
81352;BME280;70809;52.184;13.422;2023-10-08T04:05:47;101773.13;;;10.73;99.35
81352;BME280;70809;52.184;13.422;2023-10-08T04:06:49;101794.88;;;10.64;98.72
81352;BME280;70809;52.184;13.422;2023-10-08T04:07:51;101788.41;;;10.55;99.68
81352;BME280;70809;52.184;13.422;2023-10-08T04:08:53;101791.06;;;10.55;100.00
81352;BME280;70809;52.184;13.422;2023-10-08T04:09:55;101783.09;;;10.83;99.30
81352;BME280;70809;52.184;13.422;2023-10-08T04:10:56;101781.72;;;10.66;98.85
81352;BME280;70809;52.184;13.422;2023-10-08T04:11:58;101770.13;;;10.61;99.15
81352;BME280;70809;52.184;13.422;2023-10-08T04:13:02;101765.81;;;10.64;99.40
81352;BME280;70809;52.184;13.422;2023-10-08T04:14:04;101773.34;;;10.51;99.69
81352;BME280;70809;52.184;13.422;2023-10-08T04:15:07;101772.16;;;10.41;99.83
81352;BME280;70809;52.184;13.422;2023-10-08T04:16:08;101767.50;;;10.32;100.00
81352;BME280;70809;52.184;13.422;2023-10-08T04:17:10;101770.00;;;10.56;100.00
81352;BME280;70809;52.184;13.422;2023-10-08T04:18:12;101770.50;;;10.73;100.00
81352;BME280;70809;52.184;13.422;2023-10-08T04:19:14;101774.44;;;10.59;99.26
81352;BME280;70809;52.184;13.422;2023-10-08T04:20:15;101775.84;;;10.76;99.37
81352;BME280;70809;52.184;13.422;2023-10-08T04:21:18;101772.59;;;10.85;98.96
81352;BME280;70809;52.184;13.422;2023-10-08T04:22:20;101783.22;;;10.86;98.16
81352;BME280;70809;52.184;13.422;2023-10-08T04:23:21;101781.75;;;10.96;97.68
81352;BME280;70809;52.184;13.422;2023-10-08T04:24:25;101779.09;;;10.96;98.09
81352;BME280;70809;52.184;13.422;2023-10-08T04:25:27;101789.34;;;10.85;98.12
81352;BME280;70809;52.184;13.422;2023-10-08T04:26:29;101792.97;;;10.89;97.77
81352;BME280;70809;52.184;13.422;2023-10-08T04:27:30;101789.88;;;10.74;98.30
81352;BME280;70809;52.184;13.422;2023-10-08T04:28:33;101800.03;;;10.60;98.58
81352;BME280;70809;52.184;13.422;2023-10-08T04:29:35;101797.84;;;10.75;99.17
81352;BME280;70809;52.184;13.422;2023-10-08T04:30:37;101810.47;;;10.84;98.80
81352;BME280;70809;52.184;13.422;2023-10-08T04:31:39;101807.28;;;10.96;97.96
81352;BME280;70809;52.184;13.422;2023-10-08T04:32:40;101812.13;;;11.12;98.05
81352;BME280;70809;52.184;13.422;2023-10-08T04:33:43;101806.41;;;11.27;97.71
81352;BME280;70809;52.184;13.422;2023-10-08T04:34:45;101808.00;;;11.22;96.88
81352;BME280;70809;52.184;13.422;2023-10-08T04:35:47;101805.47;;;11.25;96.99
81352;BME280;70809;52.184;13.422;2023-10-08T04:36:49;101813.78;;;11.07;95.89
81352;BME280;70809;52.184;13.422;2023-10-08T04:37:50;101824.47;;;10.81;96.91
81352;BME280;70809;52.184;13.422;2023-10-08T04:38:52;101832.53;;;10.86;97.85
81352;BME280;70809;52.184;13.422;2023-10-08T04:39:54;101822.34;;;11.00;96.94
81352;BME280;70809;52.184;13.422;2023-10-08T04:40:55;101821.19;;;11.20;96.77
81352;BME280;70809;52.184;13.422;2023-10-08T04:41:58;101824.47;;;11.11;95.97
81352;BME280;70809;52.184;13.422;2023-10-08T04:42:59;101814.94;;;10.86;96.60
81352;BME280;70809;52.184;13.422;2023-10-08T04:44:03;101809.53;;;10.83;96.80
81352;BME280;70809;52.184;13.422;2023-10-08T04:45:05;101822.31;;;10.68;97.63
81352;BME280;70809;52.184;13.422;2023-10-08T04:46:07;101831.28;;;10.73;98.17
81352;BME280;70809;52.184;13.422;2023-10-08T04:47:09;101836.28;;;10.64;98.16
81352;BME280;70809;52.184;13.422;2023-10-08T04:48:11;101831.91;;;10.66;98.40
81352;BME280;70809;52.184;13.422;2023-10-08T04:49:13;101834.09;;;10.79;98.38
81352;BME280;70809;52.184;13.422;2023-10-08T04:50:14;101828.63;;;10.73;97.35
81352;BME280;70809;52.184;13.422;2023-10-08T04:51:16;101832.00;;;10.98;97.38
81352;BME280;70809;52.184;13.422;2023-10-08T04:52:18;101836.44;;;10.99;96.74
81352;BME280;70809;52.184;13.422;2023-10-08T04:53:20;101843.88;;;11.12;96.61
81352;BME280;70809;52.184;13.422;2023-10-08T04:54:21;101840.00;;;11.01;95.82
81352;BME280;70809;52.184;13.422;2023-10-08T04:55:23;101838.75;;;10.88;96.14
81352;BME280;70809;52.184;13.422;2023-10-08T04:56:25;101840.44;;;10.84;96.65
81352;BME280;70809;52.184;13.422;2023-10-08T04:57:27;101833.03;;;11.03;96.14
81352;BME280;70809;52.184;13.422;2023-10-08T04:58:28;101822.78;;;11.13;96.34
81352;BME280;70809;52.184;13.422;2023-10-08T04:59:31;101829.34;;;11.28;96.15
81352;BME280;70809;52.184;13.422;2023-10-08T05:00:33;101833.13;;;11.06;95.22
81352;BME280;70809;52.184;13.422;2023-10-08T05:01:34;101833.63;;;10.93;95.69
81352;BME280;70809;52.184;13.422;2023-10-08T05:02:36;101828.50;;;10.99;96.15
81352;BME280;70809;52.184;13.422;2023-10-08T05:03:38;101841.72;;;10.99;95.53
81352;BME280;70809;52.184;13.422;2023-10-08T05:04:40;101839.19;;;11.02;95.76
81352;BME280;70809;52.184;13.422;2023-10-08T05:05:42;101831.78;;;11.20;95.62
81352;BME280;70809;52.184;13.422;2023-10-08T05:06:43;101831.97;;;11.26;95.00
81352;BME280;70809;52.184;13.422;2023-10-08T05:07:45;101838.63;;;11.43;94.77
81352;BME280;70809;52.184;13.422;2023-10-08T05:08:47;101837.59;;;11.38;94.39
81352;BME280;70809;52.184;13.422;2023-10-08T05:09:49;101832.34;;;11.40;93.30
81352;BME280;70809;52.184;13.422;2023-10-08T05:10:50;101831.06;;;10.96;94.24
81352;BME280;70809;52.184;13.422;2023-10-08T05:11:52;101831.47;;;10.79;95.17
81352;BME280;70809;52.184;13.422;2023-10-08T05:12:55;101840.31;;;10.81;95.61
81352;BME280;70809;52.184;13.422;2023-10-08T05:13:56;101837.28;;;10.68;95.93
81352;BME280;70809;52.184;13.422;2023-10-08T05:15:00;101855.63;;;10.63;96.33
81352;BME280;70809;52.184;13.422;2023-10-08T05:16:01;101871.84;;;10.75;96.34
81352;BME280;70809;52.184;13.422;2023-10-08T05:17:07;101875.34;;;10.74;96.15
81352;BME280;70809;52.184;13.422;2023-10-08T05:18:09;101878.16;;;10.79;96.42
81352;BME280;70809;52.184;13.422;2023-10-08T05:19:11;101886.31;;;10.86;96.06
81352;BME280;70809;52.184;13.422;2023-10-08T05:20:12;101880.38;;;10.95;95.91